createdAt,value
2022-12-16T00:01:58.493Z,-1.10
2022-12-16T00:04:26.550Z,-1.00
2022-12-16T00:06:54.473Z,-1.10
2022-12-16T00:09:23.991Z,-1.00
2022-12-16T00:11:51.702Z,-1.10
2022-12-16T00:14:19.582Z,-1.20
2022-12-16T00:16:47.395Z,-1.10
2022-12-16T00:19:15.378Z,-1.10
2022-12-16T00:21:43.541Z,-1.10
2022-12-16T00:24:11.299Z,-1.20
2022-12-16T00:26:40.399Z,-1.10
2022-12-16T00:29:11.004Z,-1.50
2022-12-16T00:31:38.830Z,-1.40
2022-12-16T00:34:06.730Z,-1.40
2022-12-16T00:36:34.635Z,-1.40
2022-12-16T00:39:02.825Z,-1.50
2022-12-16T00:41:30.544Z,-1.60
2022-12-16T00:43:59.711Z,-1.60
2022-12-16T00:46:27.413Z,-1.60
2022-12-16T00:48:55.258Z,-1.50
2022-12-16T00:51:23.239Z,-1.80
2022-12-16T00:53:52.597Z,-1.70
2022-12-16T00:56:21.943Z,-1.60
2022-12-16T00:58:50.522Z,-1.50
2022-12-16T01:01:19.750Z,-1.50
2022-12-16T01:03:47.641Z,-1.40
2022-12-16T01:06:17.412Z,-1.60
2022-12-16T01:08:48.602Z,-1.60
2022-12-16T01:11:17.303Z,-1.70
2022-12-16T01:13:47.941Z,-1.70
2022-12-16T01:16:16.462Z,-1.90
2022-12-16T01:18:45.702Z,-1.80
2022-12-16T01:21:15.659Z,-1.70
2022-12-16T01:23:43.765Z,-1.90
2022-12-16T01:26:16.102Z,-1.80
2022-12-16T01:28:43.866Z,-1.80
2022-12-16T01:31:13.039Z,-1.80
2022-12-16T01:33:40.917Z,-2.00
2022-12-16T01:36:10.685Z,-2.10
2022-12-16T01:38:39.583Z,-2.00
2022-12-16T01:41:07.300Z,-1.80
2022-12-16T01:43:38.792Z,-1.90
2022-12-16T01:46:10.813Z,-2.00
2022-12-16T01:48:45.718Z,-2.20
2022-12-16T01:51:19.527Z,-2.10
2022-12-16T01:53:49.157Z,-2.10
2022-12-16T01:56:20.598Z,-2.10
2022-12-16T01:58:50.007Z,-2.10
2022-12-16T02:01:18.464Z,-2.10
2022-12-16T02:03:46.319Z,-2.10
2022-12-16T02:06:15.418Z,-2.10
2022-12-16T02:08:43.219Z,-2.10
2022-12-16T02:11:31.464Z,-2.30
2022-12-16T02:14:18.581Z,-2.20
2022-12-16T02:16:55.577Z,-2.30
2022-12-16T02:19:58.224Z,-2.20
2022-12-16T02:22:38.870Z,-2.30
2022-12-16T02:25:43.431Z,-2.30
2022-12-16T02:28:14.138Z,-2.20
2022-12-16T02:31:09.522Z,-2.30
2022-12-16T02:33:51.593Z,-2.40
2022-12-16T02:36:30.288Z,-2.30
2022-12-16T02:39:01.203Z,-2.40
2022-12-16T02:41:38.722Z,-2.40
2022-12-16T02:44:09.207Z,-2.50
2022-12-16T02:46:43.058Z,-2.50
2022-12-16T02:49:44.689Z,-2.50
2022-12-16T02:52:13.486Z,-2.50
2022-12-16T02:54:41.913Z,-2.50
2022-12-16T02:57:24.440Z,-2.60
2022-12-16T03:00:02.670Z,-2.50
2022-12-16T03:02:39.317Z,-2.60
2022-12-16T03:05:11.021Z,-2.70
2022-12-16T03:07:41.413Z,-2.50
2022-12-16T03:10:13.227Z,-2.70
2022-12-16T03:12:43.293Z,-2.80
2022-12-16T03:15:12.825Z,-2.70
2022-12-16T03:17:43.686Z,-2.50
2022-12-16T03:20:17.289Z,-2.90
2022-12-16T03:22:49.193Z,-2.70
2022-12-16T03:25:17.543Z,-2.70
2022-12-16T03:27:53.117Z,-2.80
2022-12-16T03:30:26.556Z,-2.90
2022-12-16T03:33:01.051Z,-3.00
2022-12-16T03:35:34.393Z,-2.80
2022-12-16T03:38:04.483Z,-2.90
2022-12-16T03:40:34.187Z,-2.80
2022-12-16T03:43:03.641Z,-2.80
2022-12-16T03:45:37.889Z,-2.80
2022-12-16T03:48:09.382Z,-2.90
2022-12-16T03:50:38.694Z,-2.90
2022-12-16T03:53:07.375Z,-2.90
2022-12-16T03:55:35.295Z,-2.80
2022-12-16T03:58:02.968Z,-2.70
2022-12-16T04:00:30.686Z,-2.80
2022-12-16T04:02:58.647Z,-2.70
2022-12-16T04:05:28.063Z,-2.80
2022-12-16T04:08:00.250Z,-2.90
2022-12-16T04:10:43.597Z,-3.00
2022-12-16T04:13:30.072Z,-3.00
2022-12-16T04:16:14.817Z,-3.10
2022-12-16T04:19:00.266Z,-3.10
2022-12-16T04:21:47.136Z,-3.00
2022-12-16T04:24:24.071Z,-2.90
2022-12-16T04:27:15.347Z,-2.90
2022-12-16T04:29:57.730Z,-3.10
2022-12-16T04:32:25.727Z,-3.00
2022-12-16T04:34:52.877Z,-3.10
2022-12-16T04:37:39.228Z,-3.00
2022-12-16T04:40:25.755Z,-2.90
2022-12-16T04:43:11.142Z,-3.00
2022-12-16T04:45:57.702Z,-3.00
2022-12-16T04:48:43.232Z,-3.10
2022-12-16T04:51:28.377Z,-3.20
2022-12-16T04:54:15.067Z,-3.10
2022-12-16T04:57:00.352Z,-3.30
2022-12-16T04:59:45.794Z,-3.40
2022-12-16T05:02:31.324Z,-3.40
2022-12-16T05:05:16.918Z,-3.40
2022-12-16T05:08:02.131Z,-3.20
2022-12-16T05:10:48.750Z,-3.40
2022-12-16T05:13:34.541Z,-3.40
2022-12-16T05:16:19.922Z,-3.40
2022-12-16T05:19:05.186Z,-3.50
2022-12-16T05:21:50.740Z,-3.50
2022-12-16T05:24:35.983Z,-3.30
2022-12-16T05:27:22.769Z,-3.40
2022-12-16T05:30:08.324Z,-3.50
2022-12-16T05:32:53.471Z,-3.50
2022-12-16T05:35:41.009Z,-3.50
2022-12-16T05:38:26.445Z,-3.50
2022-12-16T05:41:11.890Z,-3.40
2022-12-16T05:43:58.671Z,-3.40
2022-12-16T05:46:43.960Z,-3.40
2022-12-16T05:49:29.302Z,-3.30
2022-12-16T05:52:16.231Z,-3.30
2022-12-16T05:55:06.916Z,-3.30
2022-12-16T05:57:52.258Z,-3.40
2022-12-16T06:00:39.064Z,-3.60
2022-12-16T06:03:24.419Z,-3.30
2022-12-16T06:06:10.375Z,-3.20
2022-12-16T06:08:55.763Z,-3.00
2022-12-16T06:11:41.256Z,-3.00
2022-12-16T06:14:26.767Z,-2.90
2022-12-16T06:17:13.484Z,-2.90
2022-12-16T06:19:58.966Z,-3.00
2022-12-16T06:22:44.714Z,-3.20
2022-12-16T06:25:30.020Z,-3.20
2022-12-16T06:28:15.408Z,-3.30
2022-12-16T06:31:00.707Z,-3.40
2022-12-16T06:33:51.864Z,-3.50
2022-12-16T06:36:39.765Z,-3.50
2022-12-16T06:39:21.432Z,-3.60
2022-12-16T06:42:06.814Z,-3.70
2022-12-16T06:44:52.085Z,-3.70
2022-12-16T06:47:37.465Z,-3.70
2022-12-16T06:50:25.075Z,-3.80
2022-12-16T06:53:10.376Z,-3.90
2022-12-16T06:55:55.769Z,-4.00
2022-12-16T06:58:41.163Z,-4.00
2022-12-16T07:01:26.641Z,-3.90
2022-12-16T07:04:11.882Z,-3.90
2022-12-16T07:06:58.737Z,-3.90
2022-12-16T07:09:44.568Z,-3.80
2022-12-16T07:12:29.968Z,-3.80
2022-12-16T07:15:17.513Z,-3.80
2022-12-16T07:18:04.368Z,-3.60
2022-12-16T07:20:49.922Z,-3.60
2022-12-16T07:23:39.811Z,-3.60
2022-12-16T07:26:25.112Z,-3.40
2022-12-16T07:29:11.583Z,-3.40
2022-12-16T07:31:57.032Z,-3.40
2022-12-16T07:34:47.149Z,-3.30
2022-12-16T07:37:35.020Z,-3.30
2022-12-16T07:40:21.668Z,-3.10
2022-12-16T07:43:06.875Z,-3.00
2022-12-16T07:45:52.484Z,-3.00
2022-12-16T07:48:37.753Z,-2.90
2022-12-16T07:51:23.127Z,-3.00
2022-12-16T07:54:08.594Z,-2.80
2022-12-16T07:56:55.520Z,-2.80
2022-12-16T07:59:40.865Z,-2.80
2022-12-16T08:02:28.088Z,-2.80
2022-12-16T08:05:13.315Z,-2.90
2022-12-16T08:07:59.524Z,-2.70
2022-12-16T08:10:45.374Z,-2.60
2022-12-16T08:13:31.874Z,-2.60
2022-12-16T08:16:17.696Z,-2.60
2022-12-16T08:19:09.077Z,-2.50
2022-12-16T08:21:56.083Z,-2.40
2022-12-16T08:24:41.396Z,-2.50
2022-12-16T08:27:26.464Z,-2.40
2022-12-16T08:30:13.168Z,-2.30
2022-12-16T08:33:01.273Z,-2.20
2022-12-16T08:35:50.595Z,-2.30
2022-12-16T08:38:36.572Z,-2.00
2022-12-16T08:41:21.913Z,-1.90
2022-12-16T08:44:07.499Z,-1.80
2022-12-16T08:46:54.208Z,-1.70
2022-12-16T08:49:39.601Z,-1.70
2022-12-16T08:52:24.629Z,-1.60
2022-12-16T08:55:09.961Z,-1.60
2022-12-16T08:57:55.375Z,-1.60
2022-12-16T09:00:41.283Z,-1.50
2022-12-16T09:03:27.846Z,-1.40
2022-12-16T09:06:17.256Z,-1.30
2022-12-16T09:09:03.608Z,-1.10
2022-12-16T09:11:48.813Z,-1.10
2022-12-16T09:14:36.841Z,-0.90
2022-12-16T09:17:21.899Z,-0.80
2022-12-16T09:20:08.895Z,-0.70
2022-12-16T09:22:54.323Z,-0.50
2022-12-16T09:25:39.692Z,-0.40
2022-12-16T09:28:25.302Z,-0.30
2022-12-16T09:31:12.919Z,-0.20
2022-12-16T09:33:58.029Z,-0.10
2022-12-16T09:36:44.590Z,-0.20
2022-12-16T09:39:30.066Z,-0.10
2022-12-16T09:42:22.412Z,0.00
2022-12-16T09:45:25.110Z,0.00
2022-12-16T09:48:15.221Z,0.10
2022-12-16T09:51:03.250Z,0.20
2022-12-16T09:53:54.988Z,0.30
2022-12-16T09:56:48.256Z,0.50
2022-12-16T09:59:39.592Z,0.60
2022-12-16T10:02:30.613Z,0.60
2022-12-16T10:05:16.051Z,0.70
2022-12-16T10:08:06.937Z,0.80
2022-12-16T10:11:00.887Z,1.00
2022-12-16T10:13:55.109Z,1.00
2022-12-16T10:16:47.731Z,1.00
2022-12-16T10:19:49.343Z,0.90
2022-12-16T10:22:41.949Z,1.10
2022-12-16T10:25:34.423Z,1.20
2022-12-16T10:28:32.715Z,1.10
2022-12-16T10:31:19.056Z,1.30
2022-12-16T10:34:16.075Z,1.50
2022-12-16T10:37:08.884Z,1.50
2022-12-16T10:40:15.974Z,1.60
2022-12-16T10:43:08.780Z,1.50
2022-12-16T10:46:10.036Z,1.60
2022-12-16T10:48:56.510Z,1.70
2022-12-16T10:51:46.073Z,1.90
2022-12-16T10:54:46.671Z,1.90
2022-12-16T10:57:38.087Z,2.00
2022-12-16T11:00:29.626Z,2.00
2022-12-16T11:03:36.641Z,2.10
2022-12-16T11:06:23.112Z,2.20
2022-12-16T11:09:08.394Z,2.30
2022-12-16T11:11:53.878Z,2.40
2022-12-16T11:14:54.334Z,2.30
2022-12-16T11:17:48.762Z,2.40
2022-12-16T11:20:39.692Z,2.30
2022-12-16T11:23:33.718Z,2.60
2022-12-16T11:26:34.465Z,2.70
2022-12-16T11:29:29.381Z,2.80
2022-12-16T11:32:25.301Z,2.70
2022-12-16T11:35:13.818Z,2.90
2022-12-16T11:38:02.625Z,2.90
2022-12-16T11:40:49.645Z,3.10
2022-12-16T11:43:37.197Z,3.10
2022-12-16T11:46:28.505Z,3.20
2022-12-16T11:49:23.385Z,3.20
2022-12-16T11:52:35.293Z,3.30
2022-12-16T11:55:56.047Z,3.30
2022-12-16T11:58:39.921Z,3.40
2022-12-16T12:01:31.162Z,3.40
2022-12-16T12:04:16.681Z,3.50
2022-12-16T12:07:45.023Z,3.50
2022-12-16T12:10:49.250Z,3.60
2022-12-16T12:14:00.208Z,3.70
2022-12-16T12:16:52.221Z,3.90
2022-12-16T12:19:46.405Z,3.80
2022-12-16T12:22:44.605Z,3.90
2022-12-16T12:25:41.251Z,3.90
2022-12-16T12:28:38.089Z,4.10
2022-12-16T12:31:33.023Z,4.00
2022-12-16T12:34:24.143Z,4.10
2022-12-16T12:37:15.786Z,4.00
2022-12-16T12:40:05.308Z,3.90
2022-12-16T12:43:02.556Z,4.00
2022-12-16T12:46:10.211Z,4.00
2022-12-16T12:49:03.521Z,4.20
2022-12-16T12:51:55.834Z,4.20
2022-12-16T12:54:52.610Z,4.30
2022-12-16T12:57:41.309Z,4.20
2022-12-16T13:00:36.103Z,4.20
2022-12-16T13:03:27.053Z,4.30
2022-12-16T13:06:13.519Z,4.40
2022-12-16T13:09:15.039Z,4.20
2022-12-16T13:12:33.988Z,4.50
2022-12-16T13:15:23.656Z,4.50
2022-12-16T13:18:53.467Z,4.60
2022-12-16T13:22:11.669Z,4.50
2022-12-16T13:25:00.387Z,4.60
2022-12-16T13:27:46.993Z,4.60
2022-12-16T13:30:42.898Z,4.70
2022-12-16T13:33:43.701Z,4.70
2022-12-16T13:36:30.825Z,4.70
2022-12-16T13:39:36.435Z,4.80
2022-12-16T13:42:27.715Z,4.90
2022-12-16T13:45:15.868Z,4.90
2022-12-16T13:48:39.984Z,4.90
2022-12-16T13:51:25.409Z,4.80
2022-12-16T13:54:12.905Z,4.90
2022-12-16T13:57:02.984Z,4.90
2022-12-16T13:59:50.737Z,4.80
2022-12-16T14:02:49.135Z,4.70
2022-12-16T14:05:41.015Z,4.80
2022-12-16T14:08:35.094Z,4.80
2022-12-16T14:11:22.276Z,4.70
2022-12-16T14:14:18.213Z,4.80
2022-12-16T14:17:09.993Z,4.80
2022-12-16T14:20:12.307Z,4.90
2022-12-16T14:23:17.927Z,4.90
2022-12-16T14:26:15.984Z,4.80
2022-12-16T14:29:05.522Z,4.80
2022-12-16T14:31:57.024Z,4.70
2022-12-16T14:34:44.784Z,4.70
2022-12-16T14:37:34.043Z,4.70
2022-12-16T14:40:20.002Z,4.70
2022-12-16T14:43:12.951Z,4.50
2022-12-16T14:46:06.846Z,4.50
2022-12-16T14:48:56.679Z,4.60
2022-12-16T14:51:46.466Z,4.50
2022-12-16T14:54:42.525Z,4.60
2022-12-16T14:57:36.130Z,4.60
2022-12-16T15:00:31.101Z,4.50
2022-12-16T15:03:27.677Z,4.50
2022-12-16T15:06:16.082Z,4.60
2022-12-16T15:09:07.796Z,4.60
2022-12-16T15:11:54.496Z,4.30
2022-12-16T15:14:47.281Z,4.30
2022-12-16T15:17:41.345Z,4.30
2022-12-16T15:20:35.734Z,4.20
2022-12-16T15:23:22.895Z,4.30
2022-12-16T15:26:17.211Z,4.20
2022-12-16T15:29:02.995Z,4.30
2022-12-16T15:31:51.534Z,4.20
2022-12-16T15:34:50.059Z,4.10
2022-12-16T15:37:37.606Z,4.20
2022-12-16T15:40:38.325Z,4.20
2022-12-16T15:43:24.223Z,4.00
2022-12-16T15:46:09.808Z,4.20
2022-12-16T15:48:56.229Z,4.30
2022-12-16T15:51:48.764Z,4.20
2022-12-16T15:54:36.397Z,4.20
2022-12-16T15:57:44.254Z,4.20
2022-12-16T16:00:39.353Z,4.10
2022-12-16T16:03:36.147Z,3.80
2022-12-16T16:06:22.272Z,4.00
2022-12-16T16:09:10.818Z,3.90
2022-12-16T16:11:56.105Z,4.10
2022-12-16T16:14:54.259Z,4.30
2022-12-16T16:17:41.609Z,4.10
2022-12-16T16:20:32.778Z,3.90
2022-12-16T16:23:18.364Z,4.00
2022-12-16T16:26:04.315Z,4.20
2022-12-16T16:28:49.647Z,4.00
2022-12-16T16:31:36.600Z,4.00
2022-12-16T16:34:22.246Z,3.90
2022-12-16T16:37:11.569Z,4.00
2022-12-16T16:39:57.051Z,4.10
2022-12-16T16:42:43.126Z,4.10
2022-12-16T16:45:29.250Z,4.10
2022-12-16T16:48:24.970Z,4.20
2022-12-16T16:51:14.361Z,4.30
2022-12-16T16:54:00.054Z,4.20
2022-12-16T16:56:47.542Z,4.30
2022-12-16T16:59:47.234Z,4.50
2022-12-16T17:02:40.855Z,4.70
2022-12-16T17:05:25.246Z,4.80
2022-12-16T17:08:10.571Z,4.90
2022-12-16T17:10:56.098Z,5.00
2022-12-16T17:13:41.453Z,5.10
2022-12-16T17:16:28.558Z,5.20
2022-12-16T17:19:14.021Z,5.30
2022-12-16T17:22:00.695Z,5.50
2022-12-16T17:24:49.344Z,5.60
2022-12-16T17:27:39.428Z,5.60
2022-12-16T17:30:32.894Z,5.40
2022-12-16T17:33:18.130Z,5.50
2022-12-16T17:36:08.516Z,5.50
2022-12-16T17:38:58.226Z,5.60
2022-12-16T17:41:43.723Z,5.70
2022-12-16T17:44:29.187Z,5.50
2022-12-16T17:47:14.482Z,5.60
2022-12-16T17:49:59.979Z,5.60
2022-12-16T17:52:45.804Z,5.70
2022-12-16T17:55:35.227Z,5.70
2022-12-16T17:58:20.678Z,5.70
2022-12-16T18:01:06.147Z,5.70
2022-12-16T18:03:51.690Z,5.60
2022-12-16T18:06:37.508Z,5.60
2022-12-16T18:09:22.825Z,5.60
2022-12-16T18:12:09.158Z,5.60
2022-12-16T18:14:54.666Z,5.60
2022-12-16T18:17:40.032Z,5.50
2022-12-16T18:20:26.518Z,5.20
2022-12-16T18:23:12.185Z,5.20
2022-12-16T18:25:57.480Z,5.00
2022-12-16T18:28:46.492Z,5.10
2022-12-16T18:31:31.862Z,5.20
2022-12-16T18:34:17.243Z,5.30
2022-12-16T18:37:02.681Z,5.30
2022-12-16T18:39:48.108Z,5.30
2022-12-16T18:42:41.842Z,5.30
2022-12-16T18:45:28.854Z,5.00
2022-12-16T18:48:14.271Z,5.00
2022-12-16T18:50:59.635Z,5.10
2022-12-16T18:53:45.388Z,4.90
2022-12-16T18:56:30.505Z,4.90
2022-12-16T18:59:17.209Z,4.90
2022-12-16T19:02:04.178Z,5.00
2022-12-16T19:04:49.276Z,4.80
2022-12-16T19:07:37.005Z,4.90
2022-12-16T19:10:23.075Z,4.70
2022-12-16T19:13:08.517Z,4.90
2022-12-16T19:15:54.643Z,4.80
2022-12-16T19:18:41.357Z,4.80
2022-12-16T19:21:28.523Z,4.80
2022-12-16T19:24:14.083Z,5.00
2022-12-16T19:26:59.368Z,5.00
2022-12-16T19:29:44.652Z,4.80
2022-12-16T19:32:29.847Z,4.60
2022-12-16T19:35:16.789Z,4.50
2022-12-16T19:38:02.263Z,4.60
2022-12-16T19:40:47.543Z,4.40
2022-12-16T19:43:32.742Z,4.60
2022-12-16T19:46:18.389Z,4.70
2022-12-16T19:49:04.657Z,4.70
2022-12-16T19:51:51.806Z,4.70
2022-12-16T19:54:37.256Z,4.60
2022-12-16T19:57:22.570Z,4.70
2022-12-16T20:00:07.706Z,4.60
2022-12-16T20:02:52.451Z,4.60
2022-12-16T20:05:38.868Z,4.60
2022-12-16T20:08:25.480Z,4.70
2022-12-16T20:11:10.831Z,4.50
2022-12-16T20:13:56.290Z,4.50
2022-12-16T20:16:41.746Z,4.60
2022-12-16T20:19:27.286Z,4.50
2022-12-16T20:22:16.473Z,4.60
2022-12-16T20:25:03.027Z,4.50
2022-12-16T20:27:48.523Z,4.60
2022-12-16T20:30:34.663Z,4.50
2022-12-16T20:33:19.961Z,4.30
2022-12-16T20:36:13.982Z,4.20
2022-12-16T20:38:59.753Z,4.20
2022-12-16T20:41:46.564Z,4.00
2022-12-16T20:44:32.130Z,4.20
2022-12-16T20:47:17.711Z,4.30
2022-12-16T20:50:03.125Z,4.30
2022-12-16T20:52:48.521Z,4.20
2022-12-16T20:55:33.919Z,4.10
2022-12-16T20:58:20.333Z,4.20
2022-12-16T21:01:09.816Z,4.00
2022-12-16T21:03:56.371Z,4.10
2022-12-16T21:06:42.264Z,3.90
2022-12-16T21:09:27.912Z,4.00
2022-12-16T21:12:13.333Z,4.20
2022-12-16T21:14:59.995Z,4.20
2022-12-16T21:17:45.415Z,4.20
2022-12-16T21:20:30.838Z,4.00
2022-12-16T21:23:19.218Z,4.00
2022-12-16T21:26:05.247Z,4.10
2022-12-16T21:28:51.757Z,3.80
2022-12-16T21:31:38.320Z,3.90
2022-12-16T21:34:23.955Z,3.90
2022-12-16T21:37:09.338Z,3.80
2022-12-16T21:39:54.933Z,3.90
2022-12-16T21:42:44.020Z,3.90
2022-12-16T21:45:30.089Z,3.90
2022-12-16T21:48:16.790Z,3.90
2022-12-16T21:51:02.331Z,3.90
2022-12-16T21:53:48.029Z,3.90
2022-12-16T21:56:34.265Z,3.60
2022-12-16T21:59:19.817Z,3.50
2022-12-16T22:02:05.380Z,3.60
2022-12-16T22:04:52.113Z,3.50
2022-12-16T22:07:37.209Z,3.40
2022-12-16T22:10:23.065Z,3.50
2022-12-16T22:13:08.373Z,3.50
2022-12-16T22:15:53.598Z,3.30
2022-12-16T22:18:45.182Z,3.20
2022-12-16T22:21:32.084Z,3.10
2022-12-16T22:24:17.797Z,3.10
2022-12-16T22:27:11.866Z,3.00
2022-12-16T22:29:57.635Z,3.10
2022-12-16T22:32:43.396Z,3.10
2022-12-16T22:35:31.368Z,3.00
2022-12-16T22:38:18.479Z,3.20
2022-12-16T22:41:12.808Z,3.20
2022-12-16T22:43:57.971Z,3.40
2022-12-16T22:46:43.314Z,3.50
2022-12-16T22:49:28.847Z,3.60
2022-12-16T22:52:14.397Z,3.40
2022-12-16T22:55:01.296Z,3.40
2022-12-16T22:57:46.711Z,3.40
2022-12-16T23:00:34.295Z,3.50
2022-12-16T23:03:19.951Z,3.50
2022-12-16T23:06:05.525Z,3.40
2022-12-16T23:08:51.025Z,3.20
2022-12-16T23:11:42.510Z,3.10
2022-12-16T23:14:27.811Z,3.20
2022-12-16T23:17:13.288Z,3.20
2022-12-16T23:19:58.568Z,3.40
2022-12-16T23:22:43.977Z,3.30
2022-12-16T23:25:29.286Z,3.10
2022-12-16T23:28:15.696Z,3.30
2022-12-16T23:31:01.084Z,3.30
2022-12-16T23:33:46.369Z,3.00
2022-12-16T23:36:31.824Z,2.90
2022-12-16T23:39:17.244Z,2.90
2022-12-16T23:42:03.867Z,2.90
2022-12-16T23:44:56.229Z,3.00
2022-12-16T23:47:41.874Z,3.10
2022-12-16T23:50:23.788Z,3.10
2022-12-16T23:53:09.103Z,2.90
2022-12-16T23:55:55.026Z,2.90
2022-12-16T23:58:40.286Z,2.80
